Terminal Aerodrome Forecast
Issued by NWS Sterling, VA

Current Version | Previous Version | Text Only | Print | Product List | Glossary Off
Versions: 1 2 3 4 5 6 7 8 9 10 11 12 13 14 15 16 17 18 19 20 21 22

097
FTUS41 KLWX 212330
TAFIAD
TAF
KIAD 212330Z 2200/2306 07004KT P6SM BKN200
     FM220800 01004KT P6SM BKN250
     FM221900 07005KT P6SM FEW250
     FM230500 00000KT P6SM FEW250=

USA.gov is the U.S. government's official web portal to all federal, state and local government web resources and services.